Villa Montes, Bolivia
Current Conditions -  °F | °C
As of 10:00 AM on Sunday 23 Nov 2014 (Local Time) from SLYA Reporting Station
Overcast Overcast  
Wind Chill: 73°   Ceiling: 7000
Heat Index: 73°   Visibility: 6mi
Dew Point: 66°   Wind: 7mph
Humidity: 78%   Direction: 50°NE
Pressure: 30"   Gusts: NA
Location:  21.27°S, 63.5°W
Report Text: SLYA 231400Z 05006KT 9999 FEW023 OVC070 23/19 Q1016
Loading
Personal Weather Stations






























Interactive Weather Map New forecast layout! Learn more

10-Day Weather Forecast

Advertisements
Track Severe Weather on mobile